sensor_id;sensor_type;location;lat;lon;timestamp;temperature;humidity
3198;DHT22;1611;49.394;11.136;2023-08-01T00:00:12;18.00;73.90
3198;DHT22;1611;49.394;11.136;2023-08-01T00:02:39;18.10;73.90
3198;DHT22;1611;49.394;11.136;2023-08-01T00:05:08;18.00;73.70
3198;DHT22;1611;49.394;11.136;2023-08-01T00:07:35;18.00;73.80
3198;DHT22;1611;49.394;11.136;2023-08-01T00:10:02;18.00;74.10
3198;DHT22;1611;49.394;11.136;2023-08-01T00:12:30;18.00;73.80
3198;DHT22;1611;49.394;11.136;2023-08-01T00:14:57;18.00;73.80
3198;DHT22;1611;49.394;11.136;2023-08-01T00:17:24;18.00;74.20
3198;DHT22;1611;49.394;11.136;2023-08-01T00:19:50;18.00;74.00
3198;DHT22;1611;49.394;11.136;2023-08-01T00:22:17;18.00;74.20
3198;DHT22;1611;49.394;11.136;2023-08-01T00:24:44;18.00;74.20
3198;DHT22;1611;49.394;11.136;2023-08-01T00:27:12;18.00;74.00
3198;DHT22;1611;49.394;11.136;2023-08-01T00:29:41;18.00;74.10
3198;DHT22;1611;49.394;11.136;2023-08-01T00:32:08;18.00;73.80
3198;DHT22;1611;49.394;11.136;2023-08-01T00:34:34;18.00;73.20
3198;DHT22;1611;49.394;11.136;2023-08-01T00:37:01;18.00;73.60
3198;DHT22;1611;49.394;11.136;2023-08-01T00:39:28;18.00;73.20
3198;DHT22;1611;49.394;11.136;2023-08-01T00:41:55;18.00;73.10
3198;DHT22;1611;49.394;11.136;2023-08-01T00:44:22;18.00;72.10
3198;DHT22;1611;49.394;11.136;2023-08-01T00:46:50;18.10;72.90
3198;DHT22;1611;49.394;11.136;2023-08-01T00:49:17;18.00;73.10
3198;DHT22;1611;49.394;11.136;2023-08-01T00:51:44;18.00;72.80
3198;DHT22;1611;49.394;11.136;2023-08-01T00:54:11;18.00;72.50
3198;DHT22;1611;49.394;11.136;2023-08-01T00:56:37;17.90;73.50
3198;DHT22;1611;49.394;11.136;2023-08-01T00:59:05;17.90;73.30
3198;DHT22;1611;49.394;11.136;2023-08-01T01:01:32;17.90;73.00
3198;DHT22;1611;49.394;11.136;2023-08-01T01:04:00;17.90;73.30
3198;DHT22;1611;49.394;11.136;2023-08-01T01:06:31;17.90;73.30
3198;DHT22;1611;49.394;11.136;2023-08-01T01:08:58;17.90;73.50
3198;DHT22;1611;49.394;11.136;2023-08-01T01:11:25;17.90;73.30
3198;DHT22;1611;49.394;11.136;2023-08-01T01:13:52;18.00;73.20
3198;DHT22;1611;49.394;11.136;2023-08-01T01:16:19;17.90;73.50
3198;DHT22;1611;49.394;11.136;2023-08-01T01:18:46;17.90;73.60
3198;DHT22;1611;49.394;11.136;2023-08-01T01:21:14;17.90;73.00
3198;DHT22;1611;49.394;11.136;2023-08-01T01:23:41;17.90;73.50
3198;DHT22;1611;49.394;11.136;2023-08-01T01:26:09;17.90;73.30
3198;DHT22;1611;49.394;11.136;2023-08-01T01:28:37;17.90;73.00
3198;DHT22;1611;49.394;11.136;2023-08-01T01:31:04;17.90;73.20
3198;DHT22;1611;49.394;11.136;2023-08-01T01:33:32;17.90;73.60
3198;DHT22;1611;49.394;11.136;2023-08-01T01:36:00;17.80;73.70
3198;DHT22;1611;49.394;11.136;2023-08-01T01:38:29;17.80;73.70
3198;DHT22;1611;49.394;11.136;2023-08-01T01:40:55;17.90;73.90
3198;DHT22;1611;49.394;11.136;2023-08-01T01:43:22;17.90;73.80
3198;DHT22;1611;49.394;11.136;2023-08-01T01:45:49;17.90;73.90
3198;DHT22;1611;49.394;11.136;2023-08-01T01:48:16;17.80;74.50
3198;DHT22;1611;49.394;11.136;2023-08-01T01:50:42;17.80;74.20
3198;DHT22;1611;49.394;11.136;2023-08-01T01:53:09;17.80;74.10
3198;DHT22;1611;49.394;11.136;2023-08-01T01:55:37;17.90;73.80
3198;DHT22;1611;49.394;11.136;2023-08-01T01:58:05;17.90;74.20
3198;DHT22;1611;49.394;11.136;2023-08-01T02:00:32;17.90;73.80
3198;DHT22;1611;49.394;11.136;2023-08-01T02:02:59;17.90;73.90
3198;DHT22;1611;49.394;11.136;2023-08-01T02:05:28;17.80;73.10
3198;DHT22;1611;49.394;11.136;2023-08-01T02:07:55;17.90;73.50
3198;DHT22;1611;49.394;11.136;2023-08-01T02:10:21;17.80;73.80
3198;DHT22;1611;49.394;11.136;2023-08-01T02:12:49;17.90;73.90
3198;DHT22;1611;49.394;11.136;2023-08-01T02:15:16;17.90;73.70
3198;DHT22;1611;49.394;11.136;2023-08-01T02:17:43;17.90;74.10
3198;DHT22;1611;49.394;11.136;2023-08-01T02:20:10;17.90;74.30
3198;DHT22;1611;49.394;11.136;2023-08-01T02:22:37;17.90;74.00
3198;DHT22;1611;49.394;11.136;2023-08-01T02:25:05;17.80;73.90
3198;DHT22;1611;49.394;11.136;2023-08-01T02:27:32;17.80;74.10
3198;DHT22;1611;49.394;11.136;2023-08-01T02:30:00;17.80;74.30
3198;DHT22;1611;49.394;11.136;2023-08-01T02:32:27;17.80;74.40
3198;DHT22;1611;49.394;11.136;2023-08-01T02:34:53;17.70;74.60
3198;DHT22;1611;49.394;11.136;2023-08-01T02:37:20;17.80;74.80
3198;DHT22;1611;49.394;11.136;2023-08-01T02:39:47;17.70;75.00
3198;DHT22;1611;49.394;11.136;2023-08-01T02:42:14;17.70;75.20
3198;DHT22;1611;49.394;11.136;2023-08-01T02:44:40;17.70;75.40
3198;DHT22;1611;49.394;11.136;2023-08-01T02:47:09;17.70;75.60
3198;DHT22;1611;49.394;11.136;2023-08-01T02:49:35;17.70;75.30
3198;DHT22;1611;49.394;11.136;2023-08-01T02:52:03;17.70;74.90
3198;DHT22;1611;49.394;11.136;2023-08-01T02:54:29;17.70;74.90
3198;DHT22;1611;49.394;11.136;2023-08-01T02:56:56;17.70;75.10
3198;DHT22;1611;49.394;11.136;2023-08-01T02:59:23;17.70;75.50
3198;DHT22;1611;49.394;11.136;2023-08-01T03:01:50;17.70;74.80
3198;DHT22;1611;49.394;11.136;2023-08-01T03:04:18;17.70;74.70
3198;DHT22;1611;49.394;11.136;2023-08-01T03:06:45;17.70;74.60
3198;DHT22;1611;49.394;11.136;2023-08-01T03:09:12;17.70;74.60
3198;DHT22;1611;49.394;11.136;2023-08-01T03:11:38;17.70;74.40
3198;DHT22;1611;49.394;11.136;2023-08-01T03:14:05;17.70;74.80
3198;DHT22;1611;49.394;11.136;2023-08-01T03:16:32;17.70;74.70
3198;DHT22;1611;49.394;11.136;2023-08-01T03:18:59;17.70;74.50
3198;DHT22;1611;49.394;11.136;2023-08-01T03:21:31;17.70;74.30
3198;DHT22;1611;49.394;11.136;2023-08-01T03:23:58;17.70;74.40
3198;DHT22;1611;49.394;11.136;2023-08-01T03:26:25;17.80;74.30
3198;DHT22;1611;49.394;11.136;2023-08-01T03:28:53;17.70;74.40
3198;DHT22;1611;49.394;11.136;2023-08-01T03:31:20;17.70;74.80
3198;DHT22;1611;49.394;11.136;2023-08-01T03:33:47;17.70;74.90
3198;DHT22;1611;49.394;11.136;2023-08-01T03:36:14;17.70;74.90
3198;DHT22;1611;49.394;11.136;2023-08-01T03:38:42;17.70;74.70
3198;DHT22;1611;49.394;11.136;2023-08-01T03:41:09;17.70;74.60
3198;DHT22;1611;49.394;11.136;2023-08-01T03:43:36;17.70;74.70
3198;DHT22;1611;49.394;11.136;2023-08-01T03:46:02;17.70;74.70
3198;DHT22;1611;49.394;11.136;2023-08-01T03:48:30;17.70;74.80
3198;DHT22;1611;49.394;11.136;2023-08-01T03:50:56;17.70;74.70
3198;DHT22;1611;49.394;11.136;2023-08-01T03:53:23;17.70;74.60
3198;DHT22;1611;49.394;11.136;2023-08-01T03:55:51;17.70;74.90
3198;DHT22;1611;49.394;11.136;2023-08-01T03:58:18;17.70;74.70
3198;DHT22;1611;49.394;11.136;2023-08-01T04:00:45;17.70;74.60
3198;DHT22;1611;49.394;11.136;2023-08-01T04:03:12;17.70;75.20
3198;DHT22;1611;49.394;11.136;2023-08-01T04:05:38;17.60;75.30
3198;DHT22;1611;49.394;11.136;2023-08-01T04:08:05;17.60;75.50
3198;DHT22;1611;49.394;11.136;2023-08-01T04:10:32;17.70;75.30
3198;DHT22;1611;49.394;11.136;2023-08-01T04:13:00;17.60;75.40
3198;DHT22;1611;49.394;11.136;2023-08-01T04:15:27;17.60;75.30
3198;DHT22;1611;49.394;11.136;2023-08-01T04:17:53;17.60;75.60
3198;DHT22;1611;49.394;11.136;2023-08-01T04:20:20;17.60;75.60
3198;DHT22;1611;49.394;11.136;2023-08-01T04:22:47;17.70;75.70
3198;DHT22;1611;49.394;11.136;2023-08-01T04:25:14;17.70;75.70
3198;DHT22;1611;49.394;11.136;2023-08-01T04:27:40;17.60;75.60
3198;DHT22;1611;49.394;11.136;2023-08-01T04:30:09;17.60;76.00
3198;DHT22;1611;49.394;11.136;2023-08-01T04:32:36;17.60;76.50
3198;DHT22;1611;49.394;11.136;2023-08-01T04:35:04;17.50;76.60
3198;DHT22;1611;49.394;11.136;2023-08-01T04:37:30;17.50;76.90
3198;DHT22;1611;49.394;11.136;2023-08-01T04:39:56;17.50;76.40
3198;DHT22;1611;49.394;11.136;2023-08-01T04:42:23;17.50;76.50
3198;DHT22;1611;49.394;11.136;2023-08-01T04:44:50;17.50;76.80
3198;DHT22;1611;49.394;11.136;2023-08-01T04:47:19;17.50;76.50
3198;DHT22;1611;49.394;11.136;2023-08-01T04:49:45;17.50;76.80
3198;DHT22;1611;49.394;11.136;2023-08-01T04:52:12;17.50;76.10
3198;DHT22;1611;49.394;11.136;2023-08-01T04:54:39;17.40;76.60
3198;DHT22;1611;49.394;11.136;2023-08-01T04:57:06;17.50;77.00
3198;DHT22;1611;49.394;11.136;2023-08-01T04:59:33;17.50;76.80
3198;DHT22;1611;49.394;11.136;2023-08-01T05:01:59;17.60;76.80
3198;DHT22;1611;49.394;11.136;2023-08-01T05:04:27;17.60;76.70
3198;DHT22;1611;49.394;11.136;2023-08-01T05:06:54;17.60;76.30
3198;DHT22;1611;49.394;11.136;2023-08-01T05:09:21;17.60;76.60
3198;DHT22;1611;49.394;11.136;2023-08-01T05:11:47;17.60;76.60
3198;DHT22;1611;49.394;11.136;2023-08-01T05:14:14;17.60;76.40
3198;DHT22;1611;49.394;11.136;2023-08-01T05:16:41;17.60;76.60
3198;DHT22;1611;49.394;11.136;2023-08-01T05:19:08;17.50;76.80
3198;DHT22;1611;49.394;11.136;2023-08-01T05:21:36;17.50;77.10
3198;DHT22;1611;49.394;11.136;2023-08-01T05:24:03;17.60;76.50
3198;DHT22;1611;49.394;11.136;2023-08-01T05:26:30;17.60;76.20
3198;DHT22;1611;49.394;11.136;2023-08-01T05:28:56;17.70;76.30
3198;DHT22;1611;49.394;11.136;2023-08-01T05:31:23;17.70;75.80
3198;DHT22;1611;49.394;11.136;2023-08-01T05:33:50;17.70;75.70
3198;DHT22;1611;49.394;11.136;2023-08-01T05:36:17;17.80;75.50
3198;DHT22;1611;49.394;11.136;2023-08-01T05:38:45;17.80;75.20
3198;DHT22;1611;49.394;11.136;2023-08-01T05:41:11;17.80;75.60
3198;DHT22;1611;49.394;11.136;2023-08-01T05:43:38;17.80;75.80
3198;DHT22;1611;49.394;11.136;2023-08-01T05:46:05;17.90;75.50
3198;DHT22;1611;49.394;11.136;2023-08-01T05:48:32;17.90;75.50
3198;DHT22;1611;49.394;11.136;2023-08-01T05:50:58;17.90;75.50
3198;DHT22;1611;49.394;11.136;2023-08-01T05:53:25;17.90;75.50
3198;DHT22;1611;49.394;11.136;2023-08-01T05:55:54;18.00;75.00
3198;DHT22;1611;49.394;11.136;2023-08-01T05:58:20;18.00;74.80
3198;DHT22;1611;49.394;11.136;2023-08-01T06:00:48;18.00;74.80
3198;DHT22;1611;49.394;11.136;2023-08-01T06:03:15;18.00;74.70
3198;DHT22;1611;49.394;11.136;2023-08-01T06:05:41;18.00;75.10
3198;DHT22;1611;49.394;11.136;2023-08-01T06:08:08;18.10;74.70
3198;DHT22;1611;49.394;11.136;2023-08-01T06:10:35;18.10;74.70
3198;DHT22;1611;49.394;11.136;2023-08-01T06:13:03;18.10;74.60
3198;DHT22;1611;49.394;11.136;2023-08-01T06:15:30;18.10;74.70
3198;DHT22;1611;49.394;11.136;2023-08-01T06:17:57;18.20;74.40
3198;DHT22;1611;49.394;11.136;2023-08-01T06:20:24;18.30;74.30
3198;DHT22;1611;49.394;11.136;2023-08-01T06:22:51;18.30;74.10
3198;DHT22;1611;49.394;11.136;2023-08-01T06:25:18;18.30;74.30
3198;DHT22;1611;49.394;11.136;2023-08-01T06:27:45;18.30;73.90
3198;DHT22;1611;49.394;11.136;2023-08-01T06:30:13;18.40;73.60
3198;DHT22;1611;49.394;11.136;2023-08-01T06:32:40;18.40;73.70
3198;DHT22;1611;49.394;11.136;2023-08-01T06:35:07;18.40;73.80
3198;DHT22;1611;49.394;11.136;2023-08-01T06:37:34;18.50;73.80
3198;DHT22;1611;49.394;11.136;2023-08-01T06:40:01;18.50;73.60
3198;DHT22;1611;49.394;11.136;2023-08-01T06:42:28;18.50;73.10
3198;DHT22;1611;49.394;11.136;2023-08-01T06:44:55;18.50;73.40
3198;DHT22;1611;49.394;11.136;2023-08-01T06:47:23;18.50;73.60
3198;DHT22;1611;49.394;11.136;2023-08-01T06:49:50;18.50;73.10
3198;DHT22;1611;49.394;11.136;2023-08-01T06:52:16;18.50;73.30
3198;DHT22;1611;49.394;11.136;2023-08-01T06:54:43;18.50;73.00
3198;DHT22;1611;49.394;11.136;2023-08-01T06:57:10;18.50;73.10
3198;DHT22;1611;49.394;11.136;2023-08-01T06:59:37;18.50;73.30
3198;DHT22;1611;49.394;11.136;2023-08-01T07:02:04;18.50;72.40
3198;DHT22;1611;49.394;11.136;2023-08-01T07:04:33;18.40;73.10
3198;DHT22;1611;49.394;11.136;2023-08-01T07:07:00;18.40;73.40
3198;DHT22;1611;49.394;11.136;2023-08-01T07:09:27;18.50;73.80
3198;DHT22;1611;49.394;11.136;2023-08-01T07:11:54;18.50;73.80
3198;DHT22;1611;49.394;11.136;2023-08-01T07:14:20;18.50;73.90
3198;DHT22;1611;49.394;11.136;2023-08-01T07:16:47;18.60;73.80
3198;DHT22;1611;49.394;11.136;2023-08-01T07:19:14;18.60;73.40
3198;DHT22;1611;49.394;11.136;2023-08-01T07:21:42;18.70;72.80
3198;DHT22;1611;49.394;11.136;2023-08-01T07:24:10;18.70;72.70
3198;DHT22;1611;49.394;11.136;2023-08-01T07:26:37;18.70;72.30
3198;DHT22;1611;49.394;11.136;2023-08-01T07:29:04;18.70;72.40
3198;DHT22;1611;49.394;11.136;2023-08-01T07:31:30;18.80;72.90
3198;DHT22;1611;49.394;11.136;2023-08-01T07:33:57;18.90;72.60
3198;DHT22;1611;49.394;11.136;2023-08-01T07:36:24;18.90;72.50
3198;DHT22;1611;49.394;11.136;2023-08-01T07:38:53;18.90;72.10
3198;DHT22;1611;49.394;11.136;2023-08-01T07:41:21;18.90;71.70
3198;DHT22;1611;49.394;11.136;2023-08-01T07:43:48;18.80;71.90
3198;DHT22;1611;49.394;11.136;2023-08-01T07:46:15;18.80;72.10
3198;DHT22;1611;49.394;11.136;2023-08-01T07:48:41;18.80;73.00
3198;DHT22;1611;49.394;11.136;2023-08-01T07:51:08;18.80;72.80
3198;DHT22;1611;49.394;11.136;2023-08-01T07:53:36;18.80;73.10
3198;DHT22;1611;49.394;11.136;2023-08-01T07:56:05;18.80;73.40
3198;DHT22;1611;49.394;11.136;2023-08-01T07:58:33;18.80;74.10
3198;DHT22;1611;49.394;11.136;2023-08-01T08:01:03;18.70;73.70
3198;DHT22;1611;49.394;11.136;2023-08-01T08:03:29;18.80;73.70
3198;DHT22;1611;49.394;11.136;2023-08-01T08:05:56;18.70;73.60
3198;DHT22;1611;49.394;11.136;2023-08-01T08:08:23;18.80;73.40
3198;DHT22;1611;49.394;11.136;2023-08-01T08:10:50;18.90;72.80
3198;DHT22;1611;49.394;11.136;2023-08-01T08:13:18;18.90;72.80
3198;DHT22;1611;49.394;11.136;2023-08-01T08:15:46;19.00;72.40
3198;DHT22;1611;49.394;11.136;2023-08-01T08:18:13;18.90;72.10
3198;DHT22;1611;49.394;11.136;2023-08-01T08:20:44;18.90;72.20
3198;DHT22;1611;49.394;11.136;2023-08-01T08:23:11;18.80;71.40
3198;DHT22;1611;49.394;11.136;2023-08-01T08:25:39;18.80;72.00
3198;DHT22;1611;49.394;11.136;2023-08-01T08:28:06;18.80;72.00
3198;DHT22;1611;49.394;11.136;2023-08-01T08:30:35;18.70;72.30
3198;DHT22;1611;49.394;11.136;2023-08-01T08:33:03;18.70;72.30
3198;DHT22;1611;49.394;11.136;2023-08-01T08:35:32;18.60;72.20
3198;DHT22;1611;49.394;11.136;2023-08-01T08:37:59;18.50;72.90
3198;DHT22;1611;49.394;11.136;2023-08-01T08:40:26;18.60;72.50
3198;DHT22;1611;49.394;11.136;2023-08-01T08:42:53;18.50;72.80
3198;DHT22;1611;49.394;11.136;2023-08-01T08:45:20;18.50;72.60
3198;DHT22;1611;49.394;11.136;2023-08-01T08:47:55;18.40;73.10
3198;DHT22;1611;49.394;11.136;2023-08-01T08:50:25;18.40;72.60
3198;DHT22;1611;49.394;11.136;2023-08-01T08:52:52;18.40;72.00
3198;DHT22;1611;49.394;11.136;2023-08-01T08:55:20;18.40;72.10
3198;DHT22;1611;49.394;11.136;2023-08-01T08:57:49;18.40;72.50
3198;DHT22;1611;49.394;11.136;2023-08-01T09:00:17;18.30;72.80
3198;DHT22;1611;49.394;11.136;2023-08-01T09:02:44;18.30;72.40
3198;DHT22;1611;49.394;11.136;2023-08-01T09:05:13;18.20;73.60
3198;DHT22;1611;49.394;11.136;2023-08-01T09:07:43;18.20;74.00
3198;DHT22;1611;49.394;11.136;2023-08-01T09:10:12;18.30;73.10
3198;DHT22;1611;49.394;11.136;2023-08-01T09:12:39;18.30;72.40
3198;DHT22;1611;49.394;11.136;2023-08-01T09:15:07;18.40;73.00
3198;DHT22;1611;49.394;11.136;2023-08-01T09:17:34;18.50;72.60
3198;DHT22;1611;49.394;11.136;2023-08-01T09:20:04;18.60;71.80
3198;DHT22;1611;49.394;11.136;2023-08-01T09:22:43;18.80;71.00
3198;DHT22;1611;49.394;11.136;2023-08-01T09:25:10;19.00;70.30
3198;DHT22;1611;49.394;11.136;2023-08-01T09:27:37;19.00;69.30
3198;DHT22;1611;49.394;11.136;2023-08-01T09:30:09;19.00;68.70
3198;DHT22;1611;49.394;11.136;2023-08-01T09:32:36;19.10;68.60
3198;DHT22;1611;49.394;11.136;2023-08-01T09:35:04;19.10;69.10
3198;DHT22;1611;49.394;11.136;2023-08-01T09:37:42;19.30;69.30
3198;DHT22;1611;49.394;11.136;2023-08-01T09:40:09;19.40;68.40
3198;DHT22;1611;49.394;11.136;2023-08-01T09:42:39;19.50;66.50
3198;DHT22;1611;49.394;11.136;2023-08-01T09:45:12;19.60;67.00
3198;DHT22;1611;49.394;11.136;2023-08-01T09:47:39;19.80;66.00
3198;DHT22;1611;49.394;11.136;2023-08-01T09:50:06;19.60;65.40
3198;DHT22;1611;49.394;11.136;2023-08-01T09:52:33;19.60;65.30
3198;DHT22;1611;49.394;11.136;2023-08-01T09:55:01;19.70;66.50
3198;DHT22;1611;49.394;11.136;2023-08-01T09:57:30;19.60;66.10
3198;DHT22;1611;49.394;11.136;2023-08-01T09:59:57;19.60;65.60
3198;DHT22;1611;49.394;11.136;2023-08-01T10:02:26;19.60;65.20
3198;DHT22;1611;49.394;11.136;2023-08-01T10:04:54;19.60;66.00
3198;DHT22;1611;49.394;11.136;2023-08-01T10:07:26;19.50;64.70
3198;DHT22;1611;49.394;11.136;2023-08-01T10:09:58;19.40;65.80
3198;DHT22;1611;49.394;11.136;2023-08-01T10:12:27;19.40;66.90
3198;DHT22;1611;49.394;11.136;2023-08-01T10:14:54;19.70;66.50
3198;DHT22;1611;49.394;11.136;2023-08-01T10:17:21;20.00;65.50
3198;DHT22;1611;49.394;11.136;2023-08-01T10:19:49;20.00;65.00
3198;DHT22;1611;49.394;11.136;2023-08-01T10:22:17;20.10;64.50
3198;DHT22;1611;49.394;11.136;2023-08-01T10:24:44;20.20;64.20
3198;DHT22;1611;49.394;11.136;2023-08-01T10:27:13;20.00;63.80
3198;DHT22;1611;49.394;11.136;2023-08-01T10:29:41;19.90;63.00
3198;DHT22;1611;49.394;11.136;2023-08-01T10:32:09;19.90;64.40
3198;DHT22;1611;49.394;11.136;2023-08-01T10:34:37;19.90;64.50
3198;DHT22;1611;49.394;11.136;2023-08-01T10:37:04;19.80;65.60
3198;DHT22;1611;49.394;11.136;2023-08-01T10:39:31;19.70;65.50
3198;DHT22;1611;49.394;11.136;2023-08-01T10:41:59;19.80;65.80
3198;DHT22;1611;49.394;11.136;2023-08-01T10:44:27;19.80;66.10
3198;DHT22;1611;49.394;11.136;2023-08-01T10:46:56;19.80;66.20
3198;DHT22;1611;49.394;11.136;2023-08-01T10:49:34;19.70;66.10
3198;DHT22;1611;49.394;11.136;2023-08-01T10:52:02;19.70;66.60
3198;DHT22;1611;49.394;11.136;2023-08-01T10:54:29;19.60;66.70
3198;DHT22;1611;49.394;11.136;2023-08-01T10:56:57;19.60;67.10
3198;DHT22;1611;49.394;11.136;2023-08-01T10:59:25;19.50;68.10
3198;DHT22;1611;49.394;11.136;2023-08-01T11:01:53;19.60;68.10
3198;DHT22;1611;49.394;11.136;2023-08-01T11:04:22;19.60;69.20
3198;DHT22;1611;49.394;11.136;2023-08-01T11:06:51;19.80;68.70
3198;DHT22;1611;49.394;11.136;2023-08-01T11:09:19;19.80;67.10
3198;DHT22;1611;49.394;11.136;2023-08-01T11:11:49;19.90;67.50
3198;DHT22;1611;49.394;11.136;2023-08-01T11:14:16;19.90;66.40
3198;DHT22;1611;49.394;11.136;2023-08-01T11:16:43;20.00;66.10
3198;DHT22;1611;49.394;11.136;2023-08-01T11:19:23;20.30;66.00
3198;DHT22;1611;49.394;11.136;2023-08-01T11:21:51;20.70;65.70
3198;DHT22;1611;49.394;11.136;2023-08-01T11:24:19;21.70;62.10
3198;DHT22;1611;49.394;11.136;2023-08-01T11:26:47;22.40;56.80
3198;DHT22;1611;49.394;11.136;2023-08-01T11:29:15;22.60;55.30
3198;DHT22;1611;49.394;11.136;2023-08-01T11:31:52;22.60;55.60
3198;DHT22;1611;49.394;11.136;2023-08-01T11:34:21;22.50;54.80
3198;DHT22;1611;49.394;11.136;2023-08-01T11:36:48;22.30;53.80
3198;DHT22;1611;49.394;11.136;2023-08-01T11:39:15;22.20;55.30
3198;DHT22;1611;49.394;11.136;2023-08-01T11:41:43;22.10;56.70
3198;DHT22;1611;49.394;11.136;2023-08-01T11:44:10;22.10;56.10
3198;DHT22;1611;49.394;11.136;2023-08-01T11:46:38;22.10;55.70
3198;DHT22;1611;49.394;11.136;2023-08-01T11:49:07;21.80;54.30
3198;DHT22;1611;49.394;11.136;2023-08-01T11:51:41;21.60;54.80
3198;DHT22;1611;49.394;11.136;2023-08-01T11:54:08;21.70;56.30
3198;DHT22;1611;49.394;11.136;2023-08-01T11:56:37;21.90;55.90
3198;DHT22;1611;49.394;11.136;2023-08-01T11:59:08;22.00;56.40
3198;DHT22;1611;49.394;11.136;2023-08-01T12:01:38;22.00;55.70
3198;DHT22;1611;49.394;11.136;2023-08-01T12:04:05;22.00;54.90
3198;DHT22;1611;49.394;11.136;2023-08-01T12:06:33;21.90;52.40
3198;DHT22;1611;49.394;11.136;2023-08-01T12:09:09;21.80;53.70
3198;DHT22;1611;49.394;11.136;2023-08-01T12:11:36;21.60;54.60
3198;DHT22;1611;49.394;11.136;2023-08-01T12:14:05;21.30;54.50
3198;DHT22;1611;49.394;11.136;2023-08-01T12:16:35;20.90;57.00
3198;DHT22;1611;49.394;11.136;2023-08-01T12:19:02;20.60;57.30
3198;DHT22;1611;49.394;11.136;2023-08-01T12:21:29;20.30;54.10
3198;DHT22;1611;49.394;11.136;2023-08-01T12:23:56;20.20;54.70
3198;DHT22;1611;49.394;11.136;2023-08-01T12:26:24;20.60;54.30
3198;DHT22;1611;49.394;11.136;2023-08-01T12:28:51;22.30;45.70
3198;DHT22;1611;49.394;11.136;2023-08-01T12:31:18;24.30;42.10
3198;DHT22;1611;49.394;11.136;2023-08-01T12:33:45;25.80;35.20
3198;DHT22;1611;49.394;11.136;2023-08-01T12:36:12;27.70;28.10
3198;DHT22;1611;49.394;11.136;2023-08-01T12:38:39;29.90;22.60
3198;DHT22;1611;49.394;11.136;2023-08-01T12:41:06;31.70;19.00
3198;DHT22;1611;49.394;11.136;2023-08-01T12:43:34;33.60;15.60
3198;DHT22;1611;49.394;11.136;2023-08-01T12:46:01;35.20;13.80
3198;DHT22;1611;49.394;11.136;2023-08-01T12:48:28;36.40;11.60
3198;DHT22;1611;49.394;11.136;2023-08-01T12:50:55;37.70;9.50
3198;DHT22;1611;49.394;11.136;2023-08-01T12:53:22;38.60;7.80
3198;DHT22;1611;49.394;11.136;2023-08-01T12:55:50;39.60;7.90
3198;DHT22;1611;49.394;11.136;2023-08-01T12:58:17;39.10;8.40
3198;DHT22;1611;49.394;11.136;2023-08-01T13:00:45;37.80;8.30
3198;DHT22;1611;49.394;11.136;2023-08-01T13:03:12;36.00;9.30
3198;DHT22;1611;49.394;11.136;2023-08-01T13:05:40;34.00;12.20
3198;DHT22;1611;49.394;11.136;2023-08-01T13:08:08;31.70;13.40
3198;DHT22;1611;49.394;11.136;2023-08-01T13:10:36;29.90;18.30
3198;DHT22;1611;49.394;11.136;2023-08-01T13:13:03;28.60;21.70
3198;DHT22;1611;49.394;11.136;2023-08-01T13:15:30;27.20;24.20
3198;DHT22;1611;49.394;11.136;2023-08-01T13:17:58;25.80;27.90
3198;DHT22;1611;49.394;11.136;2023-08-01T13:20:25;24.60;32.90
3198;DHT22;1611;49.394;11.136;2023-08-01T13:22:52;23.50;35.90
3198;DHT22;1611;49.394;11.136;2023-08-01T13:25:19;22.80;38.80
3198;DHT22;1611;49.394;11.136;2023-08-01T13:27:46;21.90;39.60
3198;DHT22;1611;49.394;11.136;2023-08-01T13:30:13;21.30;41.20
3198;DHT22;1611;49.394;11.136;2023-08-01T13:32:43;20.80;45.80
3198;DHT22;1611;49.394;11.136;2023-08-01T13:35:11;20.60;45.10
3198;DHT22;1611;49.394;11.136;2023-08-01T13:37:38;20.50;45.80
3198;DHT22;1611;49.394;11.136;2023-08-01T13:40:06;20.80;46.40
3198;DHT22;1611;49.394;11.136;2023-08-01T13:42:33;21.40;45.70
3198;DHT22;1611;49.394;11.136;2023-08-01T13:45:00;22.00;45.30
3198;DHT22;1611;49.394;11.136;2023-08-01T13:47:27;22.40;39.10
3198;DHT22;1611;49.394;11.136;2023-08-01T13:49:53;23.40;38.20
3198;DHT22;1611;49.394;11.136;2023-08-01T13:52:22;24.80;33.90
3198;DHT22;1611;49.394;11.136;2023-08-01T13:54:48;25.10;31.00
3198;DHT22;1611;49.394;11.136;2023-08-01T13:57:15;24.70;32.20
3198;DHT22;1611;49.394;11.136;2023-08-01T13:59:42;24.10;34.00
3198;DHT22;1611;49.394;11.136;2023-08-01T14:02:08;23.50;35.80
3198;DHT22;1611;49.394;11.136;2023-08-01T14:04:35;22.90;36.50
3198;DHT22;1611;49.394;11.136;2023-08-01T14:07:02;22.40;38.70
3198;DHT22;1611;49.394;11.136;2023-08-01T14:09:30;21.70;42.60
3198;DHT22;1611;49.394;11.136;2023-08-01T14:11:58;21.30;44.90
3198;DHT22;1611;49.394;11.136;2023-08-01T14:14:24;21.00;47.80
3198;DHT22;1611;49.394;11.136;2023-08-01T14:16:51;20.60;50.80
3198;DHT22;1611;49.394;11.136;2023-08-01T14:19:18;20.20;53.40
3198;DHT22;1611;49.394;11.136;2023-08-01T14:21:45;20.00;56.20
3198;DHT22;1611;49.394;11.136;2023-08-01T14:24:11;19.70;56.00
3198;DHT22;1611;49.394;11.136;2023-08-01T14:26:40;19.60;58.40
3198;DHT22;1611;49.394;11.136;2023-08-01T14:29:07;19.50;59.10
3198;DHT22;1611;49.394;11.136;2023-08-01T14:31:33;19.60;59.70
3198;DHT22;1611;49.394;11.136;2023-08-01T14:34:00;19.70;59.60
3198;DHT22;1611;49.394;11.136;2023-08-01T14:36:27;20.00;60.30
3198;DHT22;1611;49.394;11.136;2023-08-01T14:38:53;21.70;55.30
3198;DHT22;1611;49.394;11.136;2023-08-01T14:41:22;23.40;48.90
3198;DHT22;1611;49.394;11.136;2023-08-01T14:43:50;25.50;40.60
3198;DHT22;1611;49.394;11.136;2023-08-01T14:46:17;26.50;35.00
3198;DHT22;1611;49.394;11.136;2023-08-01T14:48:45;26.30;34.00
3198;DHT22;1611;49.394;11.136;2023-08-01T14:51:12;25.90;35.30
3198;DHT22;1611;49.394;11.136;2023-08-01T14:53:38;25.60;35.50
3198;DHT22;1611;49.394;11.136;2023-08-01T14:56:05;25.20;38.20
3198;DHT22;1611;49.394;11.136;2023-08-01T14:58:33;24.90;38.70
3198;DHT22;1611;49.394;11.136;2023-08-01T15:01:11;24.60;40.40
3198;DHT22;1611;49.394;11.136;2023-08-01T15:03:38;24.20;40.90
3198;DHT22;1611;49.394;11.136;2023-08-01T15:06:05;23.80;42.10
3198;DHT22;1611;49.394;11.136;2023-08-01T15:08:33;23.20;42.90
3198;DHT22;1611;49.394;11.136;2023-08-01T15:11:03;22.80;44.50
3198;DHT22;1611;49.394;11.136;2023-08-01T15:13:30;22.60;45.70
3198;DHT22;1611;49.394;11.136;2023-08-01T15:15:57;22.20;47.30
3198;DHT22;1611;49.394;11.136;2023-08-01T15:18:25;22.40;49.10
3198;DHT22;1611;49.394;11.136;2023-08-01T15:20:52;23.70;45.00
3198;DHT22;1611;49.394;11.136;2023-08-01T15:23:19;24.60;43.10
3198;DHT22;1611;49.394;11.136;2023-08-01T15:25:52;26.80;36.10
3198;DHT22;1611;49.394;11.136;2023-08-01T15:28:18;28.00;30.50
3198;DHT22;1611;49.394;11.136;2023-08-01T15:30:45;27.00;29.60
3198;DHT22;1611;49.394;11.136;2023-08-01T15:33:12;25.90;32.50
3198;DHT22;1611;49.394;11.136;2023-08-01T15:35:42;24.80;37.70
3198;DHT22;1611;49.394;11.136;2023-08-01T15:38:09;24.00;38.90
3198;DHT22;1611;49.394;11.136;2023-08-01T15:40:36;23.40;43.30
3198;DHT22;1611;49.394;11.136;2023-08-01T15:43:03;22.80;48.50
3198;DHT22;1611;49.394;11.136;2023-08-01T15:45:29;22.30;50.90
3198;DHT22;1611;49.394;11.136;2023-08-01T15:47:56;21.90;49.00